createdAt,value
2022-07-28T00:00:29.669Z,1.78
2022-07-28T00:01:32.424Z,1.51
2022-07-28T00:02:35.180Z,1.65
2022-07-28T00:03:37.878Z,1.72
2022-07-28T00:04:40.544Z,1.99
2022-07-28T00:05:43.318Z,2.93
2022-07-28T00:06:46.094Z,1.45
2022-07-28T00:07:48.761Z,1.22
2022-07-28T00:08:51.633Z,1.43
2022-07-28T00:09:59.853Z,1.58
2022-07-28T00:10:58.818Z,2.04
2022-07-28T00:12:01.689Z,1.93
2022-07-28T00:13:06.912Z,1.35
2022-07-28T00:14:08.773Z,1.45
2022-07-28T00:15:11.546Z,1.15
2022-07-28T00:16:14.269Z,1.65
2022-07-28T00:17:16.888Z,1.45
2022-07-28T00:18:19.661Z,1.59
2022-07-28T00:19:22.328Z,1.38
2022-07-28T00:20:25.003Z,1.52
2022-07-28T00:21:27.677Z,1.30
2022-07-28T00:22:30.338Z,1.34
2022-07-28T00:23:37.622Z,1.62
2022-07-28T00:24:37.213Z,1.29
2022-07-28T00:25:39.983Z,1.54
2022-07-28T00:26:42.960Z,1.27
2022-07-28T00:27:46.243Z,1.51
2022-07-28T00:28:49.119Z,1.45
2022-07-28T00:29:51.890Z,1.18
2022-07-28T00:30:54.767Z,1.14
2022-07-28T00:31:57.986Z,1.13
2022-07-28T00:33:00.928Z,1.37
2022-07-28T00:34:03.901Z,1.26
2022-07-28T00:35:08.307Z,1.29
2022-07-28T00:36:12.047Z,1.37
2022-07-28T00:37:15.321Z,1.19
2022-07-28T00:38:18.371Z,1.04
2022-07-28T00:39:21.079Z,0.93
2022-07-28T00:40:23.915Z,1.06
2022-07-28T00:41:26.694Z,0.90
2022-07-28T00:42:29.767Z,1.14
2022-07-28T00:43:32.475Z,1.28
2022-07-28T00:44:35.116Z,1.38
2022-07-28T00:45:37.953Z,1.14
2022-07-28T00:46:40.710Z,1.23
2022-07-28T00:47:43.423Z,0.95
2022-07-28T00:48:46.053Z,0.89
2022-07-28T00:49:48.778Z,0.96
2022-07-28T00:50:51.534Z,0.95
2022-07-28T00:51:54.309Z,1.23
2022-07-28T00:52:57.078Z,1.45
2022-07-28T00:53:59.745Z,1.22
2022-07-28T00:55:02.703Z,1.05
2022-07-28T00:56:06.965Z,0.93
2022-07-28T00:57:09.604Z,0.97
2022-07-28T00:58:12.270Z,0.96
2022-07-28T00:59:15.050Z,1.00
2022-07-28T01:00:17.853Z,2.93
2022-07-28T01:01:20.563Z,5.08
2022-07-28T01:02:23.392Z,1.28
2022-07-28T01:03:26.449Z,1.03
2022-07-28T01:04:29.124Z,0.83
2022-07-28T01:05:43.311Z,0.98
2022-07-28T01:06:35.880Z,1.14
2022-07-28T01:07:38.551Z,1.17
2022-07-28T01:08:41.627Z,1.19
2022-07-28T01:09:44.303Z,0.86
2022-07-28T01:10:46.977Z,1.13
2022-07-28T01:11:49.642Z,1.48
2022-07-28T01:12:52.209Z,1.13
2022-07-28T01:13:54.983Z,0.98
2022-07-28T01:14:57.650Z,1.14
2022-07-28T01:16:00.508Z,0.80
2022-07-28T01:17:03.509Z,0.90
2022-07-28T01:18:06.482Z,0.95
2022-07-28T01:19:09.480Z,1.34
2022-07-28T01:20:12.339Z,0.95
2022-07-28T01:21:15.233Z,0.88
2022-07-28T01:22:17.989Z,0.97
2022-07-28T01:23:20.757Z,0.91
2022-07-28T01:24:24.953Z,0.68
2022-07-28T01:25:27.623Z,0.71
2022-07-28T01:26:30.295Z,1.22
2022-07-28T01:27:32.969Z,1.62
2022-07-28T01:28:35.735Z,0.98
2022-07-28T01:29:38.508Z,0.71
2022-07-28T01:30:41.386Z,0.65
2022-07-28T01:31:44.522Z,0.82
2022-07-28T01:32:47.439Z,1.33
2022-07-28T01:33:50.319Z,1.18
2022-07-28T01:34:53.301Z,0.67
2022-07-28T01:35:56.271Z,0.75
2022-07-28T01:36:59.248Z,1.25
2022-07-28T01:38:02.232Z,1.64
2022-07-28T01:39:05.101Z,1.07
2022-07-28T01:40:07.989Z,0.98
2022-07-28T01:41:10.847Z,0.90
2022-07-28T01:42:14.132Z,0.91
2022-07-28T01:43:17.208Z,0.92
2022-07-28T01:44:20.195Z,1.05
2022-07-28T01:45:23.063Z,1.08
2022-07-28T01:46:26.174Z,1.21
2022-07-28T01:47:29.034Z,0.92
2022-07-28T01:48:32.030Z,1.04
2022-07-28T01:49:34.767Z,0.78
2022-07-28T01:50:37.538Z,0.72
2022-07-28T01:51:40.318Z,0.84
2022-07-28T01:52:43.081Z,1.03
2022-07-28T01:53:45.852Z,0.75
2022-07-28T01:54:49.117Z,0.79
2022-07-28T01:55:52.015Z,1.21
2022-07-28T01:56:54.888Z,1.20
2022-07-28T01:57:57.662Z,1.14
2022-07-28T01:59:00.327Z,0.80
2022-07-28T02:00:03.207Z,0.81
2022-07-28T02:01:05.922Z,0.83
2022-07-28T02:02:08.706Z,0.67
2022-07-28T02:03:11.418Z,0.83
2022-07-28T02:04:14.480Z,1.00
2022-07-28T02:05:19.233Z,0.71
2022-07-28T02:06:21.574Z,0.83
2022-07-28T02:07:24.145Z,0.84
2022-07-28T02:08:26.811Z,0.96
2022-07-28T02:09:29.581Z,1.36
2022-07-28T02:10:32.360Z,0.93
2022-07-28T02:11:35.026Z,0.76
2022-07-28T02:12:37.701Z,0.68
2022-07-28T02:13:40.474Z,0.84
2022-07-28T02:14:43.045Z,1.06
2022-07-28T02:15:45.796Z,0.69
2022-07-28T02:16:48.785Z,0.85
2022-07-28T02:17:51.566Z,1.01
2022-07-28T02:18:54.130Z,1.06
2022-07-28T02:19:56.902Z,0.80
2022-07-28T02:20:59.569Z,0.99
2022-07-28T02:22:02.337Z,1.12
2022-07-28T02:23:05.328Z,0.94
2022-07-28T02:24:08.192Z,0.78
2022-07-28T02:25:11.167Z,1.11
2022-07-28T02:26:14.146Z,0.92
2022-07-28T02:27:17.338Z,0.82
2022-07-28T02:28:20.204Z,0.84
2022-07-28T02:29:49.195Z,0.87
2022-07-28T02:30:27.297Z,0.83
2022-07-28T02:31:29.893Z,0.88
2022-07-28T02:32:32.619Z,0.88
2022-07-28T02:33:59.421Z,0.72
2022-07-28T02:34:39.907Z,1.12
2022-07-28T02:35:43.906Z,1.37
2022-07-28T02:36:48.421Z,1.00
2022-07-28T02:37:51.507Z,0.94
2022-07-28T02:38:54.377Z,0.96
2022-07-28T02:40:00.266Z,0.68
2022-07-28T02:41:01.774Z,0.69
2022-07-28T02:42:04.740Z,0.95
2022-07-28T02:43:07.923Z,0.92
2022-07-28T02:44:11.418Z,0.78
2022-07-28T02:45:14.495Z,0.78
2022-07-28T02:46:17.506Z,0.68
2022-07-28T02:47:20.445Z,1.06
2022-07-28T02:48:23.372Z,0.92
2022-07-28T02:49:25.990Z,0.95
2022-07-28T02:50:28.967Z,1.18
2022-07-28T02:51:31.634Z,2.62
2022-07-28T02:52:34.310Z,0.68
2022-07-28T02:53:37.182Z,0.72
2022-07-28T02:54:39.951Z,1.11
2022-07-28T02:55:42.936Z,0.80
2022-07-28T02:56:53.343Z,0.68
2022-07-28T02:57:54.732Z,0.73
2022-07-28T02:58:55.254Z,0.78
2022-07-28T02:59:58.117Z,0.79
2022-07-28T03:01:01.031Z,1.02
2022-07-28T03:02:03.866Z,1.36
2022-07-28T03:03:06.848Z,1.08
2022-07-28T03:04:09.815Z,1.08
2022-07-28T03:05:12.764Z,1.08
2022-07-28T03:06:15.465Z,0.86
2022-07-28T03:07:18.340Z,0.92
2022-07-28T03:08:21.324Z,1.18
2022-07-28T03:09:24.815Z,1.01
2022-07-28T03:10:33.695Z,0.64
2022-07-28T03:11:31.787Z,0.70
2022-07-28T03:12:34.563Z,0.95
2022-07-28T03:13:37.329Z,1.78
2022-07-28T03:14:40.107Z,0.93
2022-07-28T03:15:42.768Z,0.86
2022-07-28T03:16:45.535Z,0.78
2022-07-28T03:17:48.227Z,0.90
2022-07-28T03:18:50.878Z,0.93
2022-07-28T03:19:53.663Z,0.63
2022-07-28T03:20:56.327Z,0.64
2022-07-28T03:21:59.000Z,0.78
2022-07-28T03:23:01.759Z,0.76
2022-07-28T03:24:04.645Z,0.82
2022-07-28T03:25:07.925Z,0.84
2022-07-28T03:26:10.799Z,0.71
2022-07-28T03:27:13.569Z,0.83
2022-07-28T03:28:16.446Z,0.79
2022-07-28T03:29:19.223Z,0.77
2022-07-28T03:30:22.515Z,0.65
2022-07-28T03:31:25.176Z,0.74
2022-07-28T03:32:28.150Z,0.59
2022-07-28T03:33:30.921Z,0.68
2022-07-28T03:34:35.032Z,0.73
2022-07-28T03:35:37.794Z,0.76
2022-07-28T03:36:40.469Z,0.78
2022-07-28T03:37:43.751Z,0.92
2022-07-28T03:38:46.628Z,0.70
2022-07-28T03:39:49.608Z,0.71
2022-07-28T03:40:52.588Z,0.77
2022-07-28T03:41:56.991Z,0.85
2022-07-28T03:43:00.079Z,0.79
2022-07-28T03:44:02.946Z,0.95
2022-07-28T03:45:05.826Z,0.85
2022-07-28T03:46:13.162Z,0.63
2022-07-28T03:47:14.130Z,0.95
2022-07-28T03:48:17.103Z,0.70
2022-07-28T03:49:20.058Z,0.77
2022-07-28T03:50:22.960Z,0.92
2022-07-28T03:51:25.745Z,0.82
2022-07-28T03:52:28.505Z,0.65
2022-07-28T03:53:31.604Z,0.88
2022-07-28T03:54:34.265Z,1.06
2022-07-28T03:55:36.926Z,0.96
2022-07-28T03:56:39.587Z,0.88
2022-07-28T03:57:42.670Z,1.09
2022-07-28T03:58:45.543Z,0.88
2022-07-28T03:59:48.314Z,0.75
2022-07-28T04:00:51.044Z,0.98
2022-07-28T04:01:53.880Z,0.88
2022-07-28T04:02:56.711Z,0.75
2022-07-28T04:03:59.306Z,0.64
2022-07-28T04:05:01.870Z,0.82
2022-07-28T04:06:04.652Z,0.72
2022-07-28T04:07:07.314Z,0.92
2022-07-28T04:08:10.908Z,0.95
2022-07-28T04:09:13.684Z,1.05
2022-07-28T04:10:16.348Z,0.79
2022-07-28T04:11:19.352Z,0.95
2022-07-28T04:12:22.203Z,0.89
2022-07-28T04:13:25.790Z,1.00
2022-07-28T04:14:28.573Z,1.25
2022-07-28T04:15:31.242Z,0.88
2022-07-28T04:16:34.040Z,1.08
2022-07-28T04:17:36.788Z,1.08
2022-07-28T04:18:39.591Z,0.69
2022-07-28T04:19:42.436Z,0.64
2022-07-28T04:20:45.400Z,1.10
2022-07-28T04:21:48.187Z,0.98
2022-07-28T04:22:51.049Z,0.65
2022-07-28T04:23:57.234Z,0.76
2022-07-28T04:24:58.121Z,0.91
2022-07-28T04:26:00.795Z,0.88
2022-07-28T04:27:03.779Z,0.82
2022-07-28T04:28:06.547Z,0.88
2022-07-28T04:29:09.319Z,0.67
2022-07-28T04:30:12.087Z,0.70
2022-07-28T04:31:14.868Z,0.61
2022-07-28T04:32:17.634Z,0.72
2022-07-28T04:33:20.633Z,1.10
2022-07-28T04:34:23.593Z,0.87
2022-07-28T04:35:26.053Z,1.12
2022-07-28T04:36:28.929Z,0.96
2022-07-28T04:37:33.341Z,0.77
2022-07-28T04:38:36.108Z,0.91
2022-07-28T04:39:38.789Z,0.94
2022-07-28T04:40:41.564Z,1.28
2022-07-28T04:41:44.319Z,0.53
2022-07-28T04:42:47.301Z,0.62
2022-07-28T04:43:50.395Z,0.97
2022-07-28T04:44:53.360Z,0.92
2022-07-28T04:45:56.594Z,0.92
2022-07-28T04:46:59.839Z,0.94
2022-07-28T04:48:02.906Z,0.80
2022-07-28T04:49:06.061Z,1.03
2022-07-28T04:50:09.165Z,1.90
2022-07-28T04:51:12.141Z,2.02
2022-07-28T04:52:15.024Z,1.07
2022-07-28T04:53:17.891Z,1.06
2022-07-28T04:54:26.323Z,0.78
2022-07-28T04:55:25.069Z,0.84
2022-07-28T04:56:28.052Z,0.93
2022-07-28T04:57:32.278Z,1.01
2022-07-28T04:58:35.742Z,1.14
2022-07-28T04:59:38.537Z,0.98
2022-07-28T05:00:41.530Z,0.94
2022-07-28T05:01:44.513Z,1.04
2022-07-28T05:02:47.458Z,0.79
2022-07-28T05:03:50.130Z,0.80
2022-07-28T05:04:53.224Z,0.78
2022-07-28T05:05:56.167Z,0.86
2022-07-28T05:06:59.152Z,0.87
2022-07-28T05:08:02.048Z,0.75
2022-07-28T05:09:05.000Z,0.78
2022-07-28T05:10:08.212Z,1.32
2022-07-28T05:11:10.968Z,1.00
2022-07-28T05:12:14.148Z,0.75
2022-07-28T05:13:18.257Z,0.56
2022-07-28T05:14:20.912Z,0.54
2022-07-28T05:15:23.795Z,0.55
2022-07-28T05:16:26.615Z,0.65
2022-07-28T05:17:29.231Z,0.40
2022-07-28T05:18:32.007Z,0.42
2022-07-28T05:19:34.775Z,0.79
2022-07-28T05:20:37.542Z,0.90
2022-07-28T05:21:40.323Z,0.95
2022-07-28T05:22:43.203Z,1.06
2022-07-28T05:23:47.756Z,0.75
2022-07-28T05:24:50.284Z,0.59
2022-07-28T05:25:54.173Z,0.62
2022-07-28T05:26:56.944Z,0.63
2022-07-28T05:27:59.515Z,0.65
2022-07-28T05:29:02.181Z,1.38
2022-07-28T05:30:04.864Z,0.65
2022-07-28T05:31:07.936Z,0.53
2022-07-28T05:32:17.152Z,0.72
2022-07-28T05:33:14.803Z,0.96
2022-07-28T05:34:17.670Z,1.03
2022-07-28T05:35:20.461Z,0.71
2022-07-28T05:36:23.033Z,1.05
2022-07-28T05:37:25.805Z,0.80
2022-07-28T05:38:28.569Z,0.73
2022-07-28T05:39:31.346Z,0.84
2022-07-28T05:40:34.009Z,0.68
2022-07-28T05:41:36.785Z,0.73
2022-07-28T05:42:39.664Z,0.89
2022-07-28T05:43:42.320Z,1.51
2022-07-28T05:44:45.100Z,1.16
2022-07-28T05:45:47.662Z,0.75
2022-07-28T05:46:50.844Z,0.93
2022-07-28T05:47:53.514Z,0.86
2022-07-28T05:48:56.458Z,1.12
2022-07-28T05:49:59.165Z,1.18
2022-07-28T05:51:01.938Z,0.89
2022-07-28T05:52:04.507Z,1.05
2022-07-28T05:53:07.171Z,0.89
2022-07-28T05:54:10.246Z,0.73
2022-07-28T05:55:13.340Z,0.77
2022-07-28T05:56:16.110Z,0.80
2022-07-28T05:57:18.870Z,0.87
2022-07-28T05:58:21.748Z,0.78
2022-07-28T05:59:24.310Z,0.72
2022-07-28T06:00:27.411Z,0.77
2022-07-28T06:01:30.214Z,1.54
2022-07-28T06:02:33.266Z,0.95
2022-07-28T06:03:41.544Z,0.72
2022-07-28T06:04:40.034Z,0.90
2022-07-28T06:06:13.817Z,0.80
2022-07-28T06:06:47.104Z,0.75
2022-07-28T06:07:49.778Z,0.82
2022-07-28T06:08:52.764Z,0.86
2022-07-28T06:09:56.347Z,0.71
2022-07-28T06:10:59.114Z,0.76
2022-07-28T06:12:02.005Z,1.47
2022-07-28T06:13:04.963Z,1.15
2022-07-28T06:14:07.845Z,1.38
2022-07-28T06:15:10.826Z,1.15
2022-07-28T06:16:13.835Z,1.00
2022-07-28T06:17:16.775Z,1.08
2022-07-28T06:18:19.764Z,1.12
2022-07-28T06:19:22.837Z,1.16
2022-07-28T06:20:26.770Z,1.35
2022-07-28T06:21:30.112Z,1.41
2022-07-28T06:22:33.107Z,1.15
2022-07-28T06:23:35.865Z,1.65
2022-07-28T06:24:38.641Z,1.50
2022-07-28T06:25:41.210Z,1.71
2022-07-28T06:26:45.051Z,1.23
2022-07-28T06:27:48.187Z,1.29
2022-07-28T06:28:51.270Z,1.36
2022-07-28T06:29:54.144Z,1.18
2022-07-28T06:30:57.220Z,1.42
2022-07-28T06:32:00.370Z,1.12
2022-07-28T06:33:04.707Z,1.47
2022-07-28T06:34:07.688Z,2.13
2022-07-28T06:35:10.685Z,1.31
2022-07-28T06:36:13.324Z,1.31
2022-07-28T06:37:15.999Z,1.22
2022-07-28T06:38:18.660Z,1.38
2022-07-28T06:39:22.694Z,1.36
2022-07-28T06:40:25.359Z,1.50
2022-07-28T06:41:28.127Z,1.48
2022-07-28T06:42:30.882Z,1.54
2022-07-28T06:43:38.292Z,1.34
2022-07-28T06:44:57.913Z,1.15
2022-07-28T06:45:42.283Z,1.46
2022-07-28T06:46:45.007Z,1.31
2022-07-28T06:47:47.526Z,1.92
2022-07-28T06:48:50.797Z,1.63
2022-07-28T06:49:53.872Z,1.32
2022-07-28T06:50:56.753Z,1.07
2022-07-28T06:51:59.741Z,1.06
2022-07-28T06:53:02.924Z,1.12
2022-07-28T06:54:11.207Z,1.21
2022-07-28T06:55:11.944Z,0.97
2022-07-28T06:56:16.866Z,1.04
2022-07-28T06:57:19.837Z,1.45
2022-07-28T06:58:22.603Z,1.25
2022-07-28T06:59:25.373Z,1.13
2022-07-28T07:00:28.509Z,1.24
2022-07-28T07:01:31.316Z,0.72
2022-07-28T07:02:34.122Z,1.06
2022-07-28T07:03:36.772Z,0.75
2022-07-28T07:04:39.602Z,0.99
2022-07-28T07:05:42.637Z,0.72
2022-07-28T07:06:45.390Z,0.94
2022-07-28T07:07:48.280Z,0.80
2022-07-28T07:08:51.045Z,0.89
2022-07-28T07:09:53.819Z,0.90
2022-07-28T07:10:56.491Z,0.93
2022-07-28T07:12:00.149Z,0.89
2022-07-28T07:13:03.465Z,1.06
2022-07-28T07:14:06.129Z,1.08
2022-07-28T07:15:08.907Z,1.04
2022-07-28T07:16:11.947Z,0.93
2022-07-28T07:17:14.770Z,1.06
2022-07-28T07:18:17.435Z,1.03
2022-07-28T07:19:20.101Z,0.90
2022-07-28T07:20:22.789Z,1.07
2022-07-28T07:21:25.442Z,1.12
2022-07-28T07:22:28.923Z,1.13
2022-07-28T07:23:31.803Z,1.08
2022-07-28T07:24:34.377Z,1.06
2022-07-28T07:25:37.040Z,1.02
2022-07-28T07:26:39.716Z,1.11
2022-07-28T07:27:42.402Z,0.93
2022-07-28T07:28:45.057Z,1.10
2022-07-28T07:29:47.928Z,1.19
2022-07-28T07:30:50.791Z,1.25
2022-07-28T07:31:53.971Z,1.13
2022-07-28T07:32:56.852Z,1.35
2022-07-28T07:33:59.939Z,0.88
2022-07-28T07:35:02.600Z,1.12
2022-07-28T07:36:05.468Z,0.99
2022-07-28T07:37:08.479Z,1.00
2022-07-28T07:38:11.442Z,0.92
2022-07-28T07:39:14.413Z,0.94
2022-07-28T07:40:17.283Z,1.02
2022-07-28T07:41:19.958Z,1.13
2022-07-28T07:42:24.686Z,1.08
2022-07-28T07:43:26.943Z,1.34
2022-07-28T07:44:29.629Z,1.25
2022-07-28T07:45:32.371Z,1.17
2022-07-28T07:46:35.927Z,1.22
2022-07-28T07:47:38.865Z,1.10
2022-07-28T07:48:41.575Z,1.06
2022-07-28T07:49:46.075Z,1.37
2022-07-28T07:50:53.410Z,1.24
2022-07-28T07:51:52.706Z,1.03
2022-07-28T07:52:56.827Z,0.93
2022-07-28T07:53:59.678Z,0.96
2022-07-28T07:55:02.550Z,0.89
2022-07-28T07:56:05.522Z,1.06
2022-07-28T07:57:08.498Z,1.08
2022-07-28T07:58:11.691Z,1.09
2022-07-28T07:59:14.668Z,1.12
2022-07-28T08:00:29.313Z,1.18
2022-07-28T08:01:22.042Z,1.21
2022-07-28T08:02:24.928Z,1.13
2022-07-28T08:03:27.894Z,1.42
2022-07-28T08:04:30.729Z,1.41
2022-07-28T08:05:35.765Z,1.25
2022-07-28T08:06:37.543Z,1.30
2022-07-28T08:07:42.164Z,1.26
2022-07-28T08:08:48.406Z,1.35
2022-07-28T08:09:49.753Z,1.32
2022-07-28T08:10:52.621Z,1.27
2022-07-28T08:11:55.602Z,1.52
2022-07-28T08:12:58.482Z,1.29
2022-07-28T08:14:02.484Z,1.21
2022-07-28T08:15:05.252Z,1.34
2022-07-28T08:16:08.285Z,1.38
2022-07-28T08:17:11.204Z,1.44
2022-07-28T08:18:14.182Z,1.52
2022-07-28T08:19:17.166Z,1.46
2022-07-28T08:20:21.708Z,1.33
2022-07-28T08:21:24.546Z,1.40
2022-07-28T08:22:27.520Z,1.36
2022-07-28T08:23:30.208Z,1.45
2022-07-28T08:24:34.384Z,1.28
2022-07-28T08:25:37.272Z,1.23
2022-07-28T08:26:39.950Z,1.36
2022-07-28T08:27:42.721Z,1.25
2022-07-28T08:28:45.392Z,1.32
2022-07-28T08:29:48.673Z,1.15
2022-07-28T08:30:51.723Z,1.29
2022-07-28T08:31:54.647Z,1.54
2022-07-28T08:32:57.504Z,1.38
2022-07-28T08:34:00.482Z,1.39
2022-07-28T08:35:31.130Z,1.26
2022-07-28T08:36:07.864Z,1.50
2022-07-28T08:37:11.056Z,1.73
2022-07-28T08:38:14.025Z,1.23
2022-07-28T08:39:16.802Z,1.25
2022-07-28T08:40:22.436Z,1.40
2022-07-28T08:41:24.291Z,1.44
2022-07-28T08:42:26.967Z,1.45
2022-07-28T08:43:29.641Z,1.46
2022-07-28T08:44:32.606Z,1.28
2022-07-28T08:45:37.235Z,1.28
2022-07-28T08:46:39.789Z,1.67
2022-07-28T08:48:06.264Z,1.50
2022-07-28T08:48:47.137Z,1.58
2022-07-28T08:49:50.068Z,1.51
2022-07-28T08:50:52.935Z,1.47
2022-07-28T08:51:55.802Z,1.55
2022-07-28T08:52:58.714Z,1.56
2022-07-28T08:54:02.574Z,1.61
2022-07-28T08:55:06.387Z,1.67
2022-07-28T08:56:09.451Z,1.42
2022-07-28T08:57:12.318Z,1.58
2022-07-28T08:58:15.302Z,1.67
2022-07-28T08:59:18.079Z,1.73
2022-07-28T09:00:21.055Z,1.30
2022-07-28T09:01:23.772Z,1.24
2022-07-28T09:02:26.570Z,1.45
2022-07-28T09:03:29.491Z,1.32
2022-07-28T09:04:32.131Z,1.12
2022-07-28T09:05:34.802Z,1.23
2022-07-28T09:06:37.701Z,1.20
2022-07-28T09:07:40.350Z,1.25
2022-07-28T09:08:43.588Z,1.27
2022-07-28T09:09:46.299Z,1.43
2022-07-28T09:10:49.076Z,1.48
2022-07-28T09:11:51.741Z,1.41
2022-07-28T09:12:54.311Z,1.46
2022-07-28T09:13:57.192Z,1.29
2022-07-28T09:15:00.162Z,1.50
2022-07-28T09:16:03.192Z,1.38
2022-07-28T09:17:06.230Z,1.43
2022-07-28T09:18:09.445Z,1.52
2022-07-28T09:19:12.385Z,1.24
2022-07-28T09:20:15.366Z,1.47
2022-07-28T09:21:21.009Z,1.35
2022-07-28T09:22:23.880Z,1.45
2022-07-28T09:23:42.353Z,1.70
2022-07-28T09:24:30.854Z,1.47
2022-07-28T09:25:33.532Z,1.43
2022-07-28T09:26:36.298Z,1.64
2022-07-28T09:27:39.275Z,1.62
2022-07-28T09:28:41.946Z,1.55
2022-07-28T09:29:44.713Z,1.87
2022-07-28T09:30:53.680Z,1.99
2022-07-28T09:31:57.106Z,1.32
2022-07-28T09:32:56.206Z,1.65
2022-07-28T09:34:04.625Z,1.91
2022-07-28T09:35:07.483Z,1.91
2022-07-28T09:36:10.364Z,1.96
2022-07-28T09:37:13.331Z,1.52
2022-07-28T09:38:17.965Z,1.73
2022-07-28T09:39:20.827Z,1.83
2022-07-28T09:40:23.803Z,1.75
2022-07-28T09:41:26.692Z,1.77
2022-07-28T09:42:29.768Z,1.68
2022-07-28T09:43:32.322Z,1.35
2022-07-28T09:44:35.301Z,1.41
2022-07-28T09:45:43.911Z,1.38
2022-07-28T09:46:46.894Z,1.54
2022-07-28T09:47:50.332Z,1.72
2022-07-28T09:48:53.661Z,1.39
2022-07-28T09:49:56.735Z,1.41
2022-07-28T09:50:59.528Z,1.45
2022-07-28T09:52:02.389Z,1.44
2022-07-28T09:53:05.367Z,1.64
2022-07-28T09:54:08.444Z,1.54
2022-07-28T09:55:11.321Z,1.28
2022-07-28T09:56:14.193Z,1.41
2022-07-28T09:57:17.070Z,1.51
2022-07-28T09:58:19.849Z,1.65
2022-07-28T09:59:24.662Z,1.45
2022-07-28T10:00:29.071Z,1.57
2022-07-28T10:01:36.808Z,1.44
2022-07-28T10:02:38.116Z,1.46
2022-07-28T10:03:41.561Z,1.45
2022-07-28T10:04:44.539Z,1.23
2022-07-28T10:05:53.494Z,1.22
2022-07-28T10:06:52.245Z,1.43
2022-07-28T10:07:55.208Z,1.25
2022-07-28T10:08:58.300Z,1.52
2022-07-28T10:10:01.477Z,1.23
2022-07-28T10:11:04.680Z,1.44
2022-07-28T10:12:07.733Z,1.69
2022-07-28T10:13:10.922Z,1.40
2022-07-28T10:14:14.612Z,1.38
2022-07-28T10:15:18.011Z,1.41
2022-07-28T10:16:22.710Z,1.31
2022-07-28T10:17:25.897Z,1.34
2022-07-28T10:18:31.634Z,1.30
2022-07-28T10:19:34.510Z,1.38
2022-07-28T10:20:42.913Z,1.52
2022-07-28T10:21:45.899Z,1.49
2022-07-28T10:22:48.772Z,1.42
2022-07-28T10:23:54.405Z,1.37
2022-07-28T10:24:57.707Z,1.23
2022-07-28T10:26:03.249Z,1.36
2022-07-28T10:27:07.661Z,1.18
2022-07-28T10:28:11.042Z,1.07
2022-07-28T10:29:14.104Z,1.25
2022-07-28T10:30:20.163Z,1.05
2022-07-28T10:31:23.356Z,0.96
2022-07-28T10:32:29.179Z,1.00
2022-07-28T10:33:31.951Z,1.07
2022-07-28T10:34:41.182Z,0.97
2022-07-28T10:35:48.480Z,1.03
2022-07-28T10:36:48.562Z,1.06
2022-07-28T10:37:52.867Z,1.20
2022-07-28T10:38:55.953Z,1.26
2022-07-28T10:39:58.929Z,1.21
2022-07-28T10:41:04.774Z,1.11
2022-07-28T10:42:07.963Z,1.06
2022-07-28T10:43:11.241Z,1.09
2022-07-28T10:44:14.792Z,1.15
2022-07-28T10:45:17.808Z,1.13
2022-07-28T10:46:33.197Z,1.16
2022-07-28T10:47:36.587Z,1.15
2022-07-28T10:48:39.417Z,1.04
2022-07-28T10:49:42.209Z,1.12
2022-07-28T10:50:45.497Z,1.18
2022-07-28T10:52:02.446Z,1.08
2022-07-28T10:52:57.525Z,1.05
2022-07-28T10:53:57.493Z,1.06
2022-07-28T10:55:03.139Z,1.05
2022-07-28T10:56:06.110Z,0.92
2022-07-28T10:57:11.954Z,1.00
2022-07-28T10:58:14.930Z,1.02
2022-07-28T11:00:54.584Z,0.97
2022-07-28T11:01:50.180Z,1.05
2022-07-28T11:02:45.698Z,1.10
2022-07-28T11:03:49.057Z,1.18
2022-07-28T11:04:52.164Z,1.20
2022-07-28T11:05:55.225Z,1.22
2022-07-28T11:06:58.213Z,1.39
2022-07-28T11:08:01.179Z,1.32
2022-07-28T11:09:06.927Z,1.36
2022-07-28T11:10:12.967Z,1.38
2022-07-28T11:11:15.845Z,1.32
2022-07-28T11:12:24.764Z,1.38
2022-07-28T11:13:29.311Z,1.35
2022-07-28T11:14:32.456Z,1.42
2022-07-28T11:15:38.298Z,1.19
2022-07-28T11:16:41.184Z,1.42
2022-07-28T11:17:43.850Z,1.37
2022-07-28T11:18:48.155Z,1.39
2022-07-28T11:21:00.553Z,1.21
2022-07-28T11:22:03.760Z,1.25
2022-07-28T11:23:10.710Z,1.39
2022-07-28T11:24:19.418Z,1.35
2022-07-28T11:25:23.069Z,1.26
2022-07-28T11:26:28.861Z,1.11
2022-07-28T11:27:31.731Z,1.18
2022-07-28T11:28:34.709Z,1.48
2022-07-28T11:29:40.452Z,1.38
2022-07-28T11:30:46.115Z,1.27
2022-07-28T11:31:51.936Z,1.35
2022-07-28T11:32:54.811Z,1.16
2022-07-28T11:33:57.584Z,1.35
2022-07-28T11:35:06.604Z,1.31
2022-07-28T11:36:09.681Z,1.23
2022-07-28T11:37:15.214Z,1.14
2022-07-28T11:38:17.578Z,1.11
2022-07-28T11:39:26.191Z,1.13
2022-07-28T11:40:29.270Z,1.08
2022-07-28T11:41:32.045Z,1.18
2022-07-28T11:42:36.765Z,1.31
2022-07-28T11:43:43.123Z,1.27
2022-07-28T11:44:46.097Z,1.25
2022-07-28T11:45:55.781Z,1.29
2022-07-28T11:46:57.477Z,1.16
2022-07-28T11:48:03.425Z,1.31
2022-07-28T11:49:06.367Z,1.22
2022-07-28T11:50:13.452Z,1.06
2022-07-28T11:51:16.253Z,1.22
2022-07-28T11:52:20.153Z,1.26
2022-07-28T11:53:23.326Z,1.16
2022-07-28T11:54:29.168Z,1.27
2022-07-28T11:55:55.510Z,0.99
2022-07-28T11:56:39.317Z,1.29
2022-07-28T11:57:42.199Z,1.02
2022-07-28T11:58:47.847Z,0.95
2022-07-28T12:00:03.112Z,1.24
2022-07-28T12:01:06.088Z,1.17
2022-07-28T12:02:10.555Z,1.16
2022-07-28T12:03:13.365Z,1.20
2022-07-28T12:04:16.379Z,1.12
2022-07-28T12:05:19.420Z,1.28
2022-07-28T12:06:29.095Z,1.18
2022-07-28T12:07:26.806Z,1.22
2022-07-28T12:08:31.118Z,1.22
2022-07-28T12:09:41.918Z,1.02
2022-07-28T12:10:55.430Z,1.30
2022-07-28T12:11:42.929Z,1.29
2022-07-28T12:12:45.587Z,1.07
2022-07-28T12:13:51.119Z,1.23
2022-07-28T12:15:07.361Z,1.33
2022-07-28T12:16:10.451Z,1.20
2022-07-28T12:17:13.506Z,1.24
2022-07-28T12:18:16.864Z,1.34
2022-07-28T12:19:20.131Z,1.31
2022-07-28T12:20:23.218Z,1.29
2022-07-28T12:21:27.725Z,1.33
2022-07-28T12:22:32.243Z,1.29
2022-07-28T12:23:38.920Z,1.45
2022-07-28T12:24:45.986Z,1.54
2022-07-28T12:25:44.553Z,1.49
2022-07-28T12:26:49.926Z,1.47
2022-07-28T12:27:52.448Z,1.23
2022-07-28T12:28:55.537Z,1.39
2022-07-28T12:29:58.605Z,1.56
2022-07-28T12:31:04.562Z,1.50
2022-07-28T12:32:09.392Z,1.61
2022-07-28T12:33:12.351Z,1.35
2022-07-28T12:34:19.629Z,1.49
2022-07-28T12:35:22.710Z,1.36
2022-07-28T12:36:28.450Z,1.40
2022-07-28T12:37:31.222Z,1.38
2022-07-28T12:38:34.203Z,1.34
2022-07-28T12:39:40.007Z,1.46
2022-07-28T12:40:48.863Z,1.31
2022-07-28T12:41:51.835Z,1.33
2022-07-28T12:42:54.918Z,1.23
2022-07-28T12:43:57.900Z,1.39
2022-07-28T12:45:00.970Z,1.40
2022-07-28T12:46:04.170Z,1.36
2022-07-28T12:47:07.339Z,1.53
2022-07-28T12:48:16.363Z,1.25
2022-07-28T12:49:19.761Z,1.42
2022-07-28T12:50:34.798Z,1.31
2022-07-28T12:51:37.683Z,1.30
2022-07-28T12:52:40.753Z,1.39
2022-07-28T12:53:43.628Z,1.22
2022-07-28T12:54:52.083Z,1.53
2022-07-28T12:55:50.917Z,1.36
2022-07-28T12:56:53.887Z,1.21
2022-07-28T12:57:56.865Z,1.43
2022-07-28T12:58:59.947Z,1.49
2022-07-28T13:00:02.927Z,1.25
2022-07-28T13:01:05.943Z,1.34
2022-07-28T13:02:11.819Z,1.35
2022-07-28T13:03:17.489Z,1.33
2022-07-28T13:04:23.127Z,1.33
2022-07-28T13:05:26.100Z,1.23
2022-07-28T13:06:29.187Z,1.26
2022-07-28T13:07:31.855Z,1.31
2022-07-28T13:08:44.527Z,1.38
2022-07-28T13:09:44.976Z,1.27
2022-07-28T13:10:49.397Z,1.31
2022-07-28T13:11:53.687Z,1.37
2022-07-28T13:12:59.338Z,1.44
2022-07-28T13:14:02.308Z,1.15
2022-07-28T13:15:07.847Z,1.24
2022-07-28T13:16:13.450Z,1.31
2022-07-28T13:17:16.367Z,1.17
2022-07-28T13:18:19.033Z,1.12
2022-07-28T13:19:24.775Z,1.03
2022-07-28T13:20:27.440Z,0.98
2022-07-28T13:21:33.182Z,1.15
2022-07-28T13:22:38.820Z,1.30
2022-07-28T13:23:41.594Z,1.15
2022-07-28T13:24:44.369Z,1.02
2022-07-28T13:25:50.124Z,1.26
2022-07-28T13:26:55.953Z,1.16
2022-07-28T13:27:58.834Z,1.28
2022-07-28T13:29:12.977Z,1.24
2022-07-28T13:30:09.624Z,1.10
2022-07-28T13:31:12.524Z,1.16
2022-07-28T13:32:15.579Z,1.03
2022-07-28T13:33:21.474Z,1.28
2022-07-28T13:34:24.469Z,1.35
2022-07-28T13:35:27.448Z,1.23
2022-07-28T13:36:30.429Z,1.39
2022-07-28T13:37:35.960Z,1.51
2022-07-28T13:38:42.222Z,1.35
2022-07-28T13:39:45.089Z,1.19
2022-07-28T13:40:47.866Z,1.05
2022-07-28T13:41:58.405Z,1.66
2022-07-28T13:42:57.140Z,1.53
2022-07-28T13:44:02.739Z,1.39
2022-07-28T13:45:07.354Z,1.21
2022-07-28T13:46:10.441Z,1.38
2022-07-28T13:47:16.465Z,1.42
2022-07-28T13:48:20.481Z,1.16
2022-07-28T13:49:23.535Z,1.28
2022-07-28T13:50:26.427Z,1.29
2022-07-28T13:51:32.279Z,1.24
2022-07-28T13:52:37.435Z,1.31
2022-07-28T13:53:40.282Z,1.22
2022-07-28T13:54:43.262Z,1.41
2022-07-28T13:55:48.689Z,1.34
2022-07-28T13:56:54.328Z,1.21
2022-07-28T13:57:57.205Z,1.38
2022-07-28T13:59:03.255Z,1.34
2022-07-28T14:00:08.097Z,1.45
2022-07-28T14:01:13.885Z,1.36
2022-07-28T14:02:16.892Z,1.75
2022-07-28T14:03:19.950Z,1.58
2022-07-28T14:04:23.639Z,1.82
2022-07-28T14:05:32.271Z,1.96
2022-07-28T14:06:34.329Z,1.64